sensor_id;sensor_type;location;lat;lon;timestamp;P1;durP1;ratioP1;P2;durP2;ratioP2
45714;SDS011;31430;61.646;24.704;2022-07-23T00:00:33;2.30;;;2.10;;
45714;SDS011;31430;61.646;24.704;2022-07-23T00:05:24;2.35;;;2.15;;
45714;SDS011;31430;61.646;24.704;2022-07-23T00:07:50;2.22;;;2.03;;
45714;SDS011;31430;61.646;24.704;2022-07-23T00:10:16;2.30;;;2.10;;
45714;SDS011;31430;61.646;24.704;2022-07-23T00:12:41;2.20;;;2.00;;
45714;SDS011;31430;61.646;24.704;2022-07-23T00:15:07;2.30;;;2.10;;
45714;SDS011;31430;61.646;24.704;2022-07-23T00:17:33;2.15;;;1.95;;
45714;SDS011;31430;61.646;24.704;2022-07-23T00:19:59;2.40;;;2.20;;
45714;SDS011;31430;61.646;24.704;2022-07-23T00:22:25;2.25;;;2.05;;
45714;SDS011;31430;61.646;24.704;2022-07-23T00:24:52;2.20;;;2.00;;
45714;SDS011;31430;61.646;24.704;2022-07-23T00:27:18;2.35;;;2.15;;
45714;SDS011;31430;61.646;24.704;2022-07-23T00:29:43;2.30;;;2.10;;
45714;SDS011;31430;61.646;24.704;2022-07-23T00:32:09;2.30;;;2.10;;
45714;SDS011;31430;61.646;24.704;2022-07-23T00:34:35;2.25;;;2.05;;
45714;SDS011;31430;61.646;24.704;2022-07-23T00:37:00;2.35;;;2.15;;
45714;SDS011;31430;61.646;24.704;2022-07-23T00:39:26;2.30;;;2.10;;
45714;SDS011;31430;61.646;24.704;2022-07-23T00:41:52;2.20;;;2.00;;
45714;SDS011;31430;61.646;24.704;2022-07-23T00:44:22;2.25;;;2.05;;
45714;SDS011;31430;61.646;24.704;2022-07-23T00:46:50;2.22;;;2.03;;
45714;SDS011;31430;61.646;24.704;2022-07-23T00:49:22;2.30;;;2.10;;
45714;SDS011;31430;61.646;24.704;2022-07-23T00:51:49;2.15;;;1.95;;
45714;SDS011;31430;61.646;24.704;2022-07-23T00:56:45;2.30;;;2.10;;
45714;SDS011;31430;61.646;24.704;2022-07-23T00:59:12;2.30;;;2.10;;
45714;SDS011;31430;61.646;24.704;2022-07-23T01:01:38;2.20;;;2.00;;
45714;SDS011;31430;61.646;24.704;2022-07-23T01:04:03;2.30;;;2.10;;
45714;SDS011;31430;61.646;24.704;2022-07-23T01:06:30;2.30;;;2.10;;
45714;SDS011;31430;61.646;24.704;2022-07-23T01:09:03;2.20;;;2.00;;
45714;SDS011;31430;61.646;24.704;2022-07-23T01:11:30;2.20;;;2.00;;
45714;SDS011;31430;61.646;24.704;2022-07-23T01:13:58;2.30;;;2.10;;
45714;SDS011;31430;61.646;24.704;2022-07-23T01:16:23;2.30;;;2.10;;
45714;SDS011;31430;61.646;24.704;2022-07-23T01:18:49;2.28;;;2.08;;
45714;SDS011;31430;61.646;24.704;2022-07-23T01:21:15;2.30;;;2.10;;
45714;SDS011;31430;61.646;24.704;2022-07-23T01:23:43;2.28;;;2.08;;
45714;SDS011;31430;61.646;24.704;2022-07-23T01:26:09;2.28;;;2.08;;
45714;SDS011;31430;61.646;24.704;2022-07-23T01:28:34;2.38;;;2.17;;
45714;SDS011;31430;61.646;24.704;2022-07-23T01:31:00;2.33;;;2.13;;
45714;SDS011;31430;61.646;24.704;2022-07-23T01:33:26;2.33;;;2.13;;
45714;SDS011;31430;61.646;24.704;2022-07-23T01:35:51;2.20;;;2.00;;
45714;SDS011;31430;61.646;24.704;2022-07-23T01:38:17;2.40;;;2.20;;
45714;SDS011;31430;61.646;24.704;2022-07-23T01:40:43;2.40;;;2.20;;
45714;SDS011;31430;61.646;24.704;2022-07-23T01:43:08;2.28;;;2.08;;
45714;SDS011;31430;61.646;24.704;2022-07-23T01:45:34;2.30;;;2.10;;
45714;SDS011;31430;61.646;24.704;2022-07-23T01:48:00;2.30;;;2.10;;
45714;SDS011;31430;61.646;24.704;2022-07-23T01:50:25;2.40;;;2.20;;
45714;SDS011;31430;61.646;24.704;2022-07-23T01:52:51;2.38;;;2.17;;
45714;SDS011;31430;61.646;24.704;2022-07-23T01:55:16;2.30;;;2.10;;
45714;SDS011;31430;61.646;24.704;2022-07-23T01:57:42;2.22;;;2.03;;
45714;SDS011;31430;61.646;24.704;2022-07-23T02:00:08;2.35;;;2.15;;
45714;SDS011;31430;61.646;24.704;2022-07-23T02:02:34;2.33;;;2.13;;
45714;SDS011;31430;61.646;24.704;2022-07-23T02:05:00;2.35;;;2.15;;
45714;SDS011;31430;61.646;24.704;2022-07-23T02:07:25;2.35;;;2.15;;
45714;SDS011;31430;61.646;24.704;2022-07-23T02:09:51;2.40;;;2.20;;
45714;SDS011;31430;61.646;24.704;2022-07-23T02:12:16;2.30;;;2.10;;
45714;SDS011;31430;61.646;24.704;2022-07-23T02:14:42;2.45;;;2.25;;
45714;SDS011;31430;61.646;24.704;2022-07-23T02:17:08;2.40;;;2.20;;
45714;SDS011;31430;61.646;24.704;2022-07-23T02:19:33;2.35;;;2.15;;
45714;SDS011;31430;61.646;24.704;2022-07-23T02:21:59;2.30;;;2.10;;
45714;SDS011;31430;61.646;24.704;2022-07-23T02:24:25;2.30;;;2.10;;
45714;SDS011;31430;61.646;24.704;2022-07-23T02:26:50;2.33;;;2.13;;
45714;SDS011;31430;61.646;24.704;2022-07-23T02:29:16;2.28;;;2.08;;
45714;SDS011;31430;61.646;24.704;2022-07-23T02:31:42;2.30;;;2.10;;
45714;SDS011;31430;61.646;24.704;2022-07-23T02:34:07;2.30;;;2.10;;
45714;SDS011;31430;61.646;24.704;2022-07-23T02:36:36;2.30;;;2.10;;
45714;SDS011;31430;61.646;24.704;2022-07-23T02:39:02;2.33;;;2.13;;
45714;SDS011;31430;61.646;24.704;2022-07-23T02:41:28;2.30;;;2.10;;
45714;SDS011;31430;61.646;24.704;2022-07-23T02:43:53;2.35;;;2.15;;
45714;SDS011;31430;61.646;24.704;2022-07-23T02:46:19;2.35;;;2.15;;
45714;SDS011;31430;61.646;24.704;2022-07-23T02:48:45;2.30;;;2.10;;
45714;SDS011;31430;61.646;24.704;2022-07-23T02:51:10;2.40;;;2.20;;
45714;SDS011;31430;61.646;24.704;2022-07-23T02:53:36;2.35;;;2.15;;
45714;SDS011;31430;61.646;24.704;2022-07-23T02:56:02;2.30;;;2.10;;
45714;SDS011;31430;61.646;24.704;2022-07-23T03:00:53;2.30;;;2.10;;
45714;SDS011;31430;61.646;24.704;2022-07-23T03:03:19;2.30;;;2.10;;
45714;SDS011;31430;61.646;24.704;2022-07-23T03:05:45;2.42;;;2.22;;
45714;SDS011;31430;61.646;24.704;2022-07-23T03:08:10;2.45;;;2.25;;
45714;SDS011;31430;61.646;24.704;2022-07-23T03:10:36;2.40;;;2.20;;
45714;SDS011;31430;61.646;24.704;2022-07-23T03:13:02;2.20;;;2.00;;
45714;SDS011;31430;61.646;24.704;2022-07-23T03:15:27;2.33;;;2.13;;
45714;SDS011;31430;61.646;24.704;2022-07-23T03:17:53;2.33;;;2.13;;
45714;SDS011;31430;61.646;24.704;2022-07-23T03:20:18;2.30;;;2.10;;
45714;SDS011;31430;61.646;24.704;2022-07-23T03:22:44;2.30;;;2.10;;
45714;SDS011;31430;61.646;24.704;2022-07-23T03:25:10;2.30;;;2.10;;
45714;SDS011;31430;61.646;24.704;2022-07-23T03:27:35;2.25;;;2.05;;
45714;SDS011;31430;61.646;24.704;2022-07-23T03:30:01;2.30;;;2.10;;
45714;SDS011;31430;61.646;24.704;2022-07-23T03:32:28;2.20;;;2.00;;
45714;SDS011;31430;61.646;24.704;2022-07-23T03:34:54;2.25;;;2.05;;
45714;SDS011;31430;61.646;24.704;2022-07-23T03:37:20;2.38;;;2.17;;
45714;SDS011;31430;61.646;24.704;2022-07-23T03:42:11;2.25;;;2.05;;
45714;SDS011;31430;61.646;24.704;2022-07-23T03:44:37;2.33;;;2.13;;
45714;SDS011;31430;61.646;24.704;2022-07-23T03:47:03;2.40;;;2.20;;
45714;SDS011;31430;61.646;24.704;2022-07-23T03:49:29;2.30;;;2.10;;
45714;SDS011;31430;61.646;24.704;2022-07-23T03:51:55;2.30;;;2.10;;
45714;SDS011;31430;61.646;24.704;2022-07-23T03:54:21;2.22;;;2.03;;
45714;SDS011;31430;61.646;24.704;2022-07-23T03:56:46;2.30;;;2.10;;
45714;SDS011;31430;61.646;24.704;2022-07-23T03:59:12;2.30;;;2.10;;
45714;SDS011;31430;61.646;24.704;2022-07-23T04:01:38;2.35;;;2.15;;
45714;SDS011;31430;61.646;24.704;2022-07-23T04:04:04;2.35;;;2.15;;
45714;SDS011;31430;61.646;24.704;2022-07-23T04:06:29;2.40;;;2.20;;
45714;SDS011;31430;61.646;24.704;2022-07-23T04:08:55;2.33;;;2.13;;
45714;SDS011;31430;61.646;24.704;2022-07-23T04:11:21;2.28;;;2.08;;
45714;SDS011;31430;61.646;24.704;2022-07-23T04:13:46;2.35;;;2.15;;
45714;SDS011;31430;61.646;24.704;2022-07-23T04:16:12;2.33;;;2.13;;
45714;SDS011;31430;61.646;24.704;2022-07-23T04:18:38;2.20;;;2.00;;
45714;SDS011;31430;61.646;24.704;2022-07-23T04:21:03;2.30;;;2.10;;
45714;SDS011;31430;61.646;24.704;2022-07-23T04:23:29;2.17;;;1.98;;
45714;SDS011;31430;61.646;24.704;2022-07-23T04:25:55;2.33;;;2.13;;
45714;SDS011;31430;61.646;24.704;2022-07-23T04:28:21;2.17;;;1.98;;
45714;SDS011;31430;61.646;24.704;2022-07-23T04:30:47;2.22;;;2.03;;
45714;SDS011;31430;61.646;24.704;2022-07-23T04:33:13;2.20;;;2.00;;
45714;SDS011;31430;61.646;24.704;2022-07-23T04:35:38;2.17;;;1.98;;
45714;SDS011;31430;61.646;24.704;2022-07-23T04:38:04;2.30;;;2.10;;
45714;SDS011;31430;61.646;24.704;2022-07-23T04:40:30;2.20;;;2.00;;
45714;SDS011;31430;61.646;24.704;2022-07-23T04:42:55;2.20;;;2.00;;
45714;SDS011;31430;61.646;24.704;2022-07-23T04:45:21;2.40;;;2.20;;
45714;SDS011;31430;61.646;24.704;2022-07-23T04:47:48;2.20;;;2.00;;
45714;SDS011;31430;61.646;24.704;2022-07-23T04:50:14;2.20;;;2.00;;
45714;SDS011;31430;61.646;24.704;2022-07-23T04:52:43;2.25;;;2.05;;
45714;SDS011;31430;61.646;24.704;2022-07-23T04:55:09;2.20;;;2.00;;
45714;SDS011;31430;61.646;24.704;2022-07-23T04:57:35;2.30;;;2.10;;
45714;SDS011;31430;61.646;24.704;2022-07-23T05:00:02;2.25;;;2.05;;
45714;SDS011;31430;61.646;24.704;2022-07-23T05:02:28;2.30;;;2.10;;
45714;SDS011;31430;61.646;24.704;2022-07-23T05:04:54;2.30;;;2.10;;
45714;SDS011;31430;61.646;24.704;2022-07-23T05:07:19;2.20;;;2.00;;
45714;SDS011;31430;61.646;24.704;2022-07-23T05:09:45;2.28;;;2.08;;
45714;SDS011;31430;61.646;24.704;2022-07-23T05:12:11;2.30;;;2.10;;
45714;SDS011;31430;61.646;24.704;2022-07-23T05:14:36;2.33;;;2.13;;
45714;SDS011;31430;61.646;24.704;2022-07-23T05:17:02;2.33;;;2.13;;
45714;SDS011;31430;61.646;24.704;2022-07-23T05:19:28;2.25;;;2.05;;
45714;SDS011;31430;61.646;24.704;2022-07-23T05:21:53;2.22;;;2.03;;
45714;SDS011;31430;61.646;24.704;2022-07-23T05:24:19;2.30;;;2.10;;
45714;SDS011;31430;61.646;24.704;2022-07-23T05:26:45;2.20;;;2.00;;
45714;SDS011;31430;61.646;24.704;2022-07-23T05:29:10;2.30;;;2.10;;
45714;SDS011;31430;61.646;24.704;2022-07-23T05:31:36;2.40;;;2.20;;
45714;SDS011;31430;61.646;24.704;2022-07-23T05:34:02;2.22;;;2.03;;
45714;SDS011;31430;61.646;24.704;2022-07-23T05:36:27;2.30;;;2.10;;
45714;SDS011;31430;61.646;24.704;2022-07-23T05:38:53;2.30;;;2.10;;
45714;SDS011;31430;61.646;24.704;2022-07-23T05:41:19;2.38;;;2.17;;
45714;SDS011;31430;61.646;24.704;2022-07-23T05:43:44;2.28;;;2.08;;
45714;SDS011;31430;61.646;24.704;2022-07-23T05:46:10;2.33;;;2.13;;
45714;SDS011;31430;61.646;24.704;2022-07-23T05:48:36;2.30;;;2.10;;
45714;SDS011;31430;61.646;24.704;2022-07-23T05:51:01;2.33;;;2.13;;
45714;SDS011;31430;61.646;24.704;2022-07-23T05:53:31;2.30;;;2.10;;
45714;SDS011;31430;61.646;24.704;2022-07-23T05:55:58;2.40;;;2.20;;
45714;SDS011;31430;61.646;24.704;2022-07-23T05:58:23;2.30;;;2.10;;
45714;SDS011;31430;61.646;24.704;2022-07-23T06:00:49;2.35;;;2.15;;
45714;SDS011;31430;61.646;24.704;2022-07-23T06:03:14;2.30;;;2.10;;
45714;SDS011;31430;61.646;24.704;2022-07-23T06:05:40;2.38;;;2.17;;
45714;SDS011;31430;61.646;24.704;2022-07-23T06:08:06;2.30;;;2.10;;
45714;SDS011;31430;61.646;24.704;2022-07-23T06:10:31;2.45;;;2.25;;
45714;SDS011;31430;61.646;24.704;2022-07-23T06:12:57;2.30;;;2.10;;
45714;SDS011;31430;61.646;24.704;2022-07-23T06:15:23;2.25;;;2.05;;
45714;SDS011;31430;61.646;24.704;2022-07-23T06:17:48;2.40;;;2.20;;
45714;SDS011;31430;61.646;24.704;2022-07-23T06:20:14;2.30;;;2.10;;
45714;SDS011;31430;61.646;24.704;2022-07-23T06:22:40;2.30;;;2.10;;
45714;SDS011;31430;61.646;24.704;2022-07-23T06:25:06;2.38;;;2.17;;
45714;SDS011;31430;61.646;24.704;2022-07-23T06:27:32;2.40;;;2.20;;
45714;SDS011;31430;61.646;24.704;2022-07-23T06:29:57;2.42;;;2.22;;
45714;SDS011;31430;61.646;24.704;2022-07-23T06:32:23;2.35;;;2.15;;
45714;SDS011;31430;61.646;24.704;2022-07-23T06:34:49;2.45;;;2.25;;
45714;SDS011;31430;61.646;24.704;2022-07-23T06:37:15;2.35;;;2.15;;
45714;SDS011;31430;61.646;24.704;2022-07-23T06:42:06;2.45;;;2.25;;
45714;SDS011;31430;61.646;24.704;2022-07-23T06:44:32;2.40;;;2.20;;
45714;SDS011;31430;61.646;24.704;2022-07-23T06:46:58;2.42;;;2.22;;
45714;SDS011;31430;61.646;24.704;2022-07-23T06:49:23;2.40;;;2.20;;
45714;SDS011;31430;61.646;24.704;2022-07-23T06:51:49;2.50;;;2.30;;
45714;SDS011;31430;61.646;24.704;2022-07-23T06:54:15;2.38;;;2.17;;
45714;SDS011;31430;61.646;24.704;2022-07-23T06:56:40;2.38;;;2.17;;
45714;SDS011;31430;61.646;24.704;2022-07-23T06:59:07;2.35;;;2.15;;
45714;SDS011;31430;61.646;24.704;2022-07-23T07:01:33;2.47;;;2.28;;
45714;SDS011;31430;61.646;24.704;2022-07-23T07:03:59;2.35;;;2.15;;
45714;SDS011;31430;61.646;24.704;2022-07-23T07:06:24;2.38;;;2.17;;
45714;SDS011;31430;61.646;24.704;2022-07-23T07:08:50;2.40;;;2.20;;
45714;SDS011;31430;61.646;24.704;2022-07-23T07:11:15;2.38;;;2.17;;
45714;SDS011;31430;61.646;24.704;2022-07-23T07:13:41;2.20;;;2.00;;
45714;SDS011;31430;61.646;24.704;2022-07-23T07:16:07;2.20;;;2.00;;
45714;SDS011;31430;61.646;24.704;2022-07-23T07:18:33;2.45;;;2.25;;
45714;SDS011;31430;61.646;24.704;2022-07-23T07:20:58;2.30;;;2.10;;
45714;SDS011;31430;61.646;24.704;2022-07-23T07:23:24;2.25;;;2.05;;
45714;SDS011;31430;61.646;24.704;2022-07-23T07:25:50;2.30;;;2.10;;
45714;SDS011;31430;61.646;24.704;2022-07-23T07:28:15;2.25;;;2.05;;
45714;SDS011;31430;61.646;24.704;2022-07-23T07:30:41;2.35;;;2.15;;
45714;SDS011;31430;61.646;24.704;2022-07-23T07:33:07;2.30;;;2.10;;
45714;SDS011;31430;61.646;24.704;2022-07-23T07:35:33;2.25;;;2.05;;
45714;SDS011;31430;61.646;24.704;2022-07-23T07:37:59;2.22;;;2.03;;
45714;SDS011;31430;61.646;24.704;2022-07-23T07:40:25;2.33;;;2.13;;
45714;SDS011;31430;61.646;24.704;2022-07-23T07:42:52;2.35;;;2.15;;
45714;SDS011;31430;61.646;24.704;2022-07-23T07:45:20;2.20;;;2.00;;
45714;SDS011;31430;61.646;24.704;2022-07-23T07:47:46;2.10;;;1.90;;
45714;SDS011;31430;61.646;24.704;2022-07-23T07:52:38;2.15;;;1.95;;
45714;SDS011;31430;61.646;24.704;2022-07-23T07:55:04;2.13;;;1.92;;
45714;SDS011;31430;61.646;24.704;2022-07-23T07:57:31;2.13;;;1.92;;
45714;SDS011;31430;61.646;24.704;2022-07-23T07:59:56;2.17;;;1.98;;
45714;SDS011;31430;61.646;24.704;2022-07-23T08:02:22;2.10;;;1.90;;
45714;SDS011;31430;61.646;24.704;2022-07-23T08:04:48;2.03;;;1.83;;
45714;SDS011;31430;61.646;24.704;2022-07-23T08:07:14;1.90;;;1.70;;
45714;SDS011;31430;61.646;24.704;2022-07-23T08:09:40;1.90;;;1.70;;
45714;SDS011;31430;61.646;24.704;2022-07-23T08:12:06;2.10;;;1.90;;
45714;SDS011;31430;61.646;24.704;2022-07-23T08:16:57;2.10;;;1.90;;
45714;SDS011;31430;61.646;24.704;2022-07-23T08:19:23;2.03;;;1.83;;
45714;SDS011;31430;61.646;24.704;2022-07-23T08:21:49;2.10;;;1.90;;
45714;SDS011;31430;61.646;24.704;2022-07-23T08:24:15;2.05;;;1.85;;
45714;SDS011;31430;61.646;24.704;2022-07-23T08:26:40;1.98;;;1.77;;
45714;SDS011;31430;61.646;24.704;2022-07-23T08:29:06;2.10;;;1.90;;
45714;SDS011;31430;61.646;24.704;2022-07-23T08:31:32;2.00;;;1.80;;
45714;SDS011;31430;61.646;24.704;2022-07-23T08:33:58;2.03;;;1.83;;
45714;SDS011;31430;61.646;24.704;2022-07-23T08:36:24;1.95;;;1.75;;
45714;SDS011;31430;61.646;24.704;2022-07-23T08:38:52;2.00;;;1.80;;
45714;SDS011;31430;61.646;24.704;2022-07-23T08:41:19;1.90;;;1.70;;
45714;SDS011;31430;61.646;24.704;2022-07-23T08:43:45;2.20;;;2.00;;
45714;SDS011;31430;61.646;24.704;2022-07-23T08:46:11;2.17;;;1.98;;
45714;SDS011;31430;61.646;24.704;2022-07-23T08:48:38;2.08;;;1.88;;
45714;SDS011;31430;61.646;24.704;2022-07-23T08:51:05;2.05;;;1.85;;
45714;SDS011;31430;61.646;24.704;2022-07-23T08:53:32;2.00;;;1.80;;
45714;SDS011;31430;61.646;24.704;2022-07-23T08:56:01;2.00;;;1.80;;
45714;SDS011;31430;61.646;24.704;2022-07-23T08:58:30;2.10;;;1.90;;
45714;SDS011;31430;61.646;24.704;2022-07-23T09:00:56;2.00;;;1.80;;
45714;SDS011;31430;61.646;24.704;2022-07-23T09:03:23;1.95;;;1.75;;
45714;SDS011;31430;61.646;24.704;2022-07-23T09:05:54;1.98;;;1.77;;
45714;SDS011;31430;61.646;24.704;2022-07-23T09:08:24;2.10;;;1.90;;
45714;SDS011;31430;61.646;24.704;2022-07-23T09:11:02;2.00;;;1.80;;
45714;SDS011;31430;61.646;24.704;2022-07-23T09:19:03;2.00;;;1.80;;
45714;SDS011;31430;61.646;24.704;2022-07-23T09:24:07;2.05;;;1.85;;
45714;SDS011;31430;61.646;24.704;2022-07-23T09:26:35;2.10;;;1.90;;
45714;SDS011;31430;61.646;24.704;2022-07-23T09:29:10;2.00;;;1.80;;
45714;SDS011;31430;61.646;24.704;2022-07-23T09:36:49;2.08;;;1.88;;
45714;SDS011;31430;61.646;24.704;2022-07-23T09:39:29;1.90;;;1.70;;
45714;SDS011;31430;61.646;24.704;2022-07-23T09:41:57;1.90;;;1.70;;
45714;SDS011;31430;61.646;24.704;2022-07-23T09:44:40;1.90;;;1.70;;
45714;SDS011;31430;61.646;24.704;2022-07-23T09:47:11;1.90;;;1.70;;
45714;SDS011;31430;61.646;24.704;2022-07-23T09:49:37;1.83;;;1.63;;
45714;SDS011;31430;61.646;24.704;2022-07-23T09:52:03;1.90;;;1.70;;
45714;SDS011;31430;61.646;24.704;2022-07-23T09:57:08;1.97;;;1.77;;
45714;SDS011;31430;61.646;24.704;2022-07-23T09:59:39;2.00;;;1.80;;
45714;SDS011;31430;61.646;24.704;2022-07-23T10:02:07;2.00;;;1.80;;
45714;SDS011;31430;61.646;24.704;2022-07-23T10:04:34;1.88;;;1.67;;
45714;SDS011;31430;61.646;24.704;2022-07-23T10:07:02;1.88;;;1.67;;
45714;SDS011;31430;61.646;24.704;2022-07-23T10:09:30;1.88;;;1.67;;
45714;SDS011;31430;61.646;24.704;2022-07-23T10:11:59;2.00;;;1.80;;
45714;SDS011;31430;61.646;24.704;2022-07-23T10:14:46;1.88;;;1.67;;
45714;SDS011;31430;61.646;24.704;2022-07-23T10:17:12;1.95;;;1.75;;
45714;SDS011;31430;61.646;24.704;2022-07-23T10:19:38;2.00;;;1.80;;
45714;SDS011;31430;61.646;24.704;2022-07-23T10:22:08;2.08;;;1.88;;
45714;SDS011;31430;61.646;24.704;2022-07-23T10:27:45;2.10;;;1.90;;
45714;SDS011;31430;61.646;24.704;2022-07-23T10:39:06;2.25;;;2.05;;
45714;SDS011;31430;61.646;24.704;2022-07-23T10:41:39;2.13;;;1.92;;
45714;SDS011;31430;61.646;24.704;2022-07-23T10:44:09;2.00;;;1.80;;
45714;SDS011;31430;61.646;24.704;2022-07-23T10:47:00;2.00;;;1.80;;
45714;SDS011;31430;61.646;24.704;2022-07-23T10:49:31;2.10;;;1.90;;
45714;SDS011;31430;61.646;24.704;2022-07-23T10:54:44;2.10;;;1.90;;
45714;SDS011;31430;61.646;24.704;2022-07-23T10:57:12;2.05;;;1.85;;
45714;SDS011;31430;61.646;24.704;2022-07-23T11:02:30;2.03;;;1.83;;
45714;SDS011;31430;61.646;24.704;2022-07-23T11:05:39;2.00;;;1.80;;
45714;SDS011;31430;61.646;24.704;2022-07-23T11:08:20;1.98;;;1.77;;
45714;SDS011;31430;61.646;24.704;2022-07-23T11:31:56;1.80;;;1.60;;
45714;SDS011;31430;61.646;24.704;2022-07-23T11:37:08;1.83;;;1.63;;
45714;SDS011;31430;61.646;24.704;2022-07-23T11:39:36;1.90;;;1.70;;
45714;SDS011;31430;61.646;24.704;2022-07-23T11:42:03;1.85;;;1.65;;
45714;SDS011;31430;61.646;24.704;2022-07-23T11:44:37;1.90;;;1.70;;
45714;SDS011;31430;61.646;24.704;2022-07-23T11:49:33;1.85;;;1.65;;
45714;SDS011;31430;61.646;24.704;2022-07-23T11:52:04;1.85;;;1.65;;
45714;SDS011;31430;61.646;24.704;2022-07-23T11:54:32;1.80;;;1.60;;
45714;SDS011;31430;61.646;24.704;2022-07-23T11:56:59;1.80;;;1.60;;
45714;SDS011;31430;61.646;24.704;2022-07-23T11:59:27;1.80;;;1.60;;
45714;SDS011;31430;61.646;24.704;2022-07-23T12:01:59;1.85;;;1.65;;
45714;SDS011;31430;61.646;24.704;2022-07-23T12:04:39;1.88;;;1.67;;
45714;SDS011;31430;61.646;24.704;2022-07-23T12:09:53;1.88;;;1.67;;
45714;SDS011;31430;61.646;24.704;2022-07-23T12:12:20;1.80;;;1.60;;
45714;SDS011;31430;61.646;24.704;2022-07-23T12:14:48;1.88;;;1.67;;
45714;SDS011;31430;61.646;24.704;2022-07-23T12:17:13;2.00;;;1.80;;
45714;SDS011;31430;61.646;24.704;2022-07-23T12:19:39;2.10;;;1.90;;
45714;SDS011;31430;61.646;24.704;2022-07-23T12:22:05;2.20;;;2.00;;
45714;SDS011;31430;61.646;24.704;2022-07-23T12:24:30;2.30;;;2.10;;
45714;SDS011;31430;61.646;24.704;2022-07-23T12:27:19;2.20;;;2.00;;
45714;SDS011;31430;61.646;24.704;2022-07-23T12:29:46;2.30;;;2.10;;
45714;SDS011;31430;61.646;24.704;2022-07-23T12:32:22;2.20;;;2.00;;
45714;SDS011;31430;61.646;24.704;2022-07-23T12:34:50;2.17;;;1.98;;
45714;SDS011;31430;61.646;24.704;2022-07-23T12:37:28;2.15;;;1.95;;
45714;SDS011;31430;61.646;24.704;2022-07-23T12:39:55;2.20;;;2.00;;
45714;SDS011;31430;61.646;24.704;2022-07-23T12:42:20;2.30;;;2.10;;
45714;SDS011;31430;61.646;24.704;2022-07-23T12:47:49;2.33;;;2.13;;
45714;SDS011;31430;61.646;24.704;2022-07-23T12:50:32;2.20;;;2.00;;
45714;SDS011;31430;61.646;24.704;2022-07-23T12:58:07;2.13;;;1.92;;
45714;SDS011;31430;61.646;24.704;2022-07-23T13:05:51;2.10;;;1.90;;
45714;SDS011;31430;61.646;24.704;2022-07-23T13:08:17;2.05;;;1.85;;
45714;SDS011;31430;61.646;24.704;2022-07-23T13:10:43;2.05;;;1.85;;
45714;SDS011;31430;61.646;24.704;2022-07-23T13:13:12;1.95;;;1.75;;
45714;SDS011;31430;61.646;24.704;2022-07-23T13:15:37;2.08;;;1.88;;
45714;SDS011;31430;61.646;24.704;2022-07-23T13:18:03;2.00;;;1.80;;
45714;SDS011;31430;61.646;24.704;2022-07-23T13:20:29;2.00;;;1.80;;
45714;SDS011;31430;61.646;24.704;2022-07-23T13:22:56;1.90;;;1.70;;
45714;SDS011;31430;61.646;24.704;2022-07-23T13:25:22;2.00;;;1.80;;
45714;SDS011;31430;61.646;24.704;2022-07-23T13:27:48;1.90;;;1.70;;
45714;SDS011;31430;61.646;24.704;2022-07-23T13:30:13;1.83;;;1.63;;
45714;SDS011;31430;61.646;24.704;2022-07-23T13:35:05;1.92;;;1.73;;
45714;SDS011;31430;61.646;24.704;2022-07-23T13:40:00;2.05;;;1.85;;
45714;SDS011;31430;61.646;24.704;2022-07-23T13:42:26;1.95;;;1.75;;
45714;SDS011;31430;61.646;24.704;2022-07-23T13:47:18;2.00;;;1.80;;
45714;SDS011;31430;61.646;24.704;2022-07-23T13:49:43;1.90;;;1.70;;
45714;SDS011;31430;61.646;24.704;2022-07-23T13:52:09;1.90;;;1.70;;
45714;SDS011;31430;61.646;24.704;2022-07-23T13:54:35;1.90;;;1.70;;
45714;SDS011;31430;61.646;24.704;2022-07-23T13:59:26;1.90;;;1.70;;
45714;SDS011;31430;61.646;24.704;2022-07-23T14:01:52;1.75;;;1.50;;
45714;SDS011;31430;61.646;24.704;2022-07-23T14:04:18;1.70;;;1.58;;
45714;SDS011;31430;61.646;24.704;2022-07-23T14:06:45;1.80;;;1.60;;
45714;SDS011;31430;61.646;24.704;2022-07-23T14:09:11;1.83;;;1.63;;
45714;SDS011;31430;61.646;24.704;2022-07-23T14:11:39;1.85;;;1.65;;
45714;SDS011;31430;61.646;24.704;2022-07-23T14:14:05;1.80;;;1.60;;
45714;SDS011;31430;61.646;24.704;2022-07-23T14:16:30;1.90;;;1.70;;
45714;SDS011;31430;61.646;24.704;2022-07-23T14:18:56;1.80;;;1.60;;
45714;SDS011;31430;61.646;24.704;2022-07-23T14:21:22;1.90;;;1.70;;
45714;SDS011;31430;61.646;24.704;2022-07-23T14:23:47;1.88;;;1.67;;
45714;SDS011;31430;61.646;24.704;2022-07-23T14:26:13;1.92;;;1.73;;
45714;SDS011;31430;61.646;24.704;2022-07-23T14:28:39;2.03;;;1.83;;
45714;SDS011;31430;61.646;24.704;2022-07-23T14:31:04;2.00;;;1.80;;
45714;SDS011;31430;61.646;24.704;2022-07-23T14:33:30;2.05;;;1.85;;
45714;SDS011;31430;61.646;24.704;2022-07-23T14:35:56;2.05;;;1.85;;
45714;SDS011;31430;61.646;24.704;2022-07-23T14:38:23;2.00;;;1.80;;
45714;SDS011;31430;61.646;24.704;2022-07-23T14:40:48;2.20;;;2.00;;
45714;SDS011;31430;61.646;24.704;2022-07-23T14:43:14;2.10;;;1.90;;
45714;SDS011;31430;61.646;24.704;2022-07-23T14:45:40;2.05;;;1.85;;
45714;SDS011;31430;61.646;24.704;2022-07-23T14:48:05;2.08;;;1.88;;
45714;SDS011;31430;61.646;24.704;2022-07-23T14:50:32;2.00;;;1.80;;
45714;SDS011;31430;61.646;24.704;2022-07-23T14:52:58;2.00;;;1.80;;
45714;SDS011;31430;61.646;24.704;2022-07-23T14:55:23;2.00;;;1.80;;
45714;SDS011;31430;61.646;24.704;2022-07-23T14:57:49;1.92;;;1.73;;
45714;SDS011;31430;61.646;24.704;2022-07-23T15:00:15;2.13;;;1.92;;
45714;SDS011;31430;61.646;24.704;2022-07-23T15:02:41;2.10;;;1.90;;
45714;SDS011;31430;61.646;24.704;2022-07-23T15:05:06;2.10;;;1.90;;
45714;SDS011;31430;61.646;24.704;2022-07-23T15:07:32;2.08;;;1.88;;
45714;SDS011;31430;61.646;24.704;2022-07-23T15:09:58;2.00;;;1.80;;
45714;SDS011;31430;61.646;24.704;2022-07-23T15:12:24;2.00;;;1.80;;
45714;SDS011;31430;61.646;24.704;2022-07-23T15:14:50;2.10;;;1.90;;
45714;SDS011;31430;61.646;24.704;2022-07-23T15:17:15;2.00;;;1.80;;
45714;SDS011;31430;61.646;24.704;2022-07-23T15:19:41;2.10;;;1.90;;
45714;SDS011;31430;61.646;24.704;2022-07-23T15:22:07;2.20;;;2.00;;
45714;SDS011;31430;61.646;24.704;2022-07-23T15:24:33;2.08;;;1.88;;
45714;SDS011;31430;61.646;24.704;2022-07-23T15:26:58;2.03;;;1.83;;
45714;SDS011;31430;61.646;24.704;2022-07-23T15:29:24;2.03;;;1.83;;
45714;SDS011;31430;61.646;24.704;2022-07-23T15:31:50;2.00;;;1.80;;
45714;SDS011;31430;61.646;24.704;2022-07-23T15:34:15;2.10;;;1.90;;
45714;SDS011;31430;61.646;24.704;2022-07-23T15:36:41;2.03;;;1.83;;
45714;SDS011;31430;61.646;24.704;2022-07-23T15:39:07;2.08;;;1.88;;
45714;SDS011;31430;61.646;24.704;2022-07-23T15:41:33;2.00;;;1.80;;
45714;SDS011;31430;61.646;24.704;2022-07-23T15:43:58;2.10;;;1.90;;
45714;SDS011;31430;61.646;24.704;2022-07-23T15:46:24;2.05;;;1.85;;
45714;SDS011;31430;61.646;24.704;2022-07-23T15:48:50;2.10;;;1.90;;
45714;SDS011;31430;61.646;24.704;2022-07-23T15:51:16;2.05;;;1.85;;
45714;SDS011;31430;61.646;24.704;2022-07-23T15:53:42;2.15;;;1.95;;
45714;SDS011;31430;61.646;24.704;2022-07-23T15:56:08;2.17;;;1.98;;
45714;SDS011;31430;61.646;24.704;2022-07-23T15:58:34;2.05;;;1.85;;
45714;SDS011;31430;61.646;24.704;2022-07-23T16:01:01;2.00;;;1.80;;
45714;SDS011;31430;61.646;24.704;2022-07-23T16:03:32;2.10;;;1.90;;
45714;SDS011;31430;61.646;24.704;2022-07-23T16:05:59;2.00;;;1.80;;
45714;SDS011;31430;61.646;24.704;2022-07-23T16:08:25;2.13;;;1.92;;
45714;SDS011;31430;61.646;24.704;2022-07-23T16:10:50;2.10;;;1.90;;
45714;SDS011;31430;61.646;24.704;2022-07-23T16:13:16;2.13;;;1.92;;